createdAt,value
2017-03-11T00:00:37.551Z,3.3
2017-03-11T00:01:40.065Z,3.3
2017-03-11T00:02:42.897Z,3.2
2017-03-11T00:03:46.168Z,3.2
2017-03-11T00:04:47.655Z,3.2
2017-03-11T00:05:50.180Z,3.2
2017-03-11T00:06:53.007Z,3.2
2017-03-11T00:07:55.362Z,3.2
2017-03-11T00:08:59.174Z,3.1
2017-03-11T00:10:00.663Z,3.1
2017-03-11T00:11:03.189Z,3.1
2017-03-11T00:12:05.668Z,3.1
2017-03-11T00:13:08.001Z,3.1
2017-03-11T00:14:11.241Z,3.1
2017-03-11T00:15:13.218Z,3.1
2017-03-11T00:16:16.223Z,3.1
2017-03-11T00:17:18.707Z,3.1
2017-03-11T00:18:21.052Z,3.1
2017-03-11T00:19:23.791Z,3.1
2017-03-11T00:20:26.277Z,3.1
2017-03-11T00:21:28.786Z,3.1
2017-03-11T00:22:31.842Z,3.1
2017-03-11T00:23:34.350Z,3
2017-03-11T00:24:37.468Z,3
2017-03-11T00:25:39.483Z,3
2017-03-11T00:26:41.467Z,3
2017-03-11T00:27:43.985Z,3
2017-03-11T00:28:46.475Z,3
2017-03-11T00:29:49.714Z,3
2017-03-11T00:30:51.692Z,3
2017-03-11T00:31:54.196Z,3
2017-03-11T00:32:56.715Z,3
2017-03-11T00:33:59.743Z,3
2017-03-11T00:35:02.482Z,3
2017-03-11T00:36:04.468Z,2.9
2017-03-11T00:37:06.957Z,2.9
2017-03-11T00:38:09.437Z,2.9
2017-03-11T00:39:12.435Z,2.9
2017-03-11T00:41:17.256Z,2.9
2017-03-11T00:42:19.759Z,2.9
2017-03-11T00:43:22.276Z,2.9
2017-03-11T00:44:24.769Z,2.9
2017-03-11T00:45:27.291Z,2.9
2017-03-11T00:46:31.079Z,2.9
2017-03-11T00:47:32.556Z,2.8
2017-03-11T00:48:35.058Z,2.8
2017-03-11T00:49:37.856Z,2.8
2017-03-11T00:50:40.350Z,2.8
2017-03-11T00:51:43.124Z,2.8
2017-03-11T00:53:48.013Z,2.8
2017-03-11T00:54:50.522Z,2.8
2017-03-11T00:55:53.028Z,2.7
2017-03-11T00:56:55.621Z,2.6
2017-03-11T00:57:58.117Z,2.6
2017-03-11T00:59:01.187Z,2.7
2017-03-11T01:00:03.001Z,2.6
2017-03-11T01:01:06.001Z,2.6
2017-03-11T01:02:08.748Z,2.6
2017-03-11T01:03:10.762Z,2.6
2017-03-11T01:04:13.244Z,2.6
2017-03-11T01:05:16.070Z,2.5
2017-03-11T01:06:18.549Z,2.5
2017-03-11T01:07:21.284Z,2.5
2017-03-11T01:08:23.788Z,2.5
2017-03-11T01:09:26.839Z,2.5
2017-03-11T01:10:28.820Z,2.5
2017-03-11T01:11:31.139Z,2.5
2017-03-11T01:12:34.212Z,2.5
2017-03-11T01:13:36.206Z,2.5
2017-03-11T01:14:39.192Z,2.5
2017-03-11T01:15:41.677Z,2.5
2017-03-11T01:16:44.181Z,2.5
2017-03-11T01:17:46.925Z,2.5
2017-03-11T01:18:49.951Z,2.5
2017-03-11T01:19:51.950Z,2.5
2017-03-11T01:20:54.454Z,2.5
2017-03-11T01:21:56.942Z,2.5
2017-03-11T01:22:59.688Z,2.5
2017-03-11T01:24:01.681Z,2.5
2017-03-11T01:25:04.688Z,2.5
2017-03-11T01:26:07.017Z,2.4
2017-03-11T01:27:09.879Z,2.4
2017-03-11T01:28:12.613Z,2.4
2017-03-11T01:29:14.421Z,2.5
2017-03-11T01:30:17.424Z,2.4
2017-03-11T01:31:19.741Z,2.4
2017-03-11T01:32:22.099Z,2.4
2017-03-11T01:33:25.346Z,2.4
2017-03-11T01:34:27.338Z,2.4
2017-03-11T01:35:29.820Z,2.4
2017-03-11T01:36:32.316Z,2.3
2017-03-11T01:37:35.350Z,2.3
2017-03-11T01:38:38.094Z,2.3
2017-03-11T01:39:40.081Z,2.3
2017-03-11T01:40:42.585Z,2.3
2017-03-11T01:41:45.086Z,2.3
2017-03-11T01:42:48.124Z,2.3
2017-03-11T01:43:50.366Z,2.3
2017-03-11T01:44:52.886Z,2.3
2017-03-11T01:45:55.373Z,2.3
2017-03-11T01:46:58.397Z,2.3
2017-03-11T01:48:00.947Z,2.3
2017-03-11T01:49:03.718Z,2.3
2017-03-11T01:50:05.458Z,2.3
2017-03-11T01:51:08.096Z,2.3
2017-03-11T01:52:10.584Z,2.3
2017-03-11T01:53:12.922Z,2.3
2017-03-11T01:54:15.991Z,2.3
2017-03-11T01:55:18.479Z,2.3
2017-03-11T01:56:20.979Z,2.3
2017-03-11T01:57:23.475Z,2.3
2017-03-11T01:58:25.798Z,2.3
2017-03-11T01:59:28.538Z,2.3
2017-03-11T02:00:31.023Z,2.3
2017-03-11T02:01:33.504Z,2.3
2017-03-11T02:02:36.315Z,2.3
2017-03-11T02:03:38.807Z,2.3
2017-03-11T02:04:41.393Z,2.3
2017-03-11T02:05:43.882Z,2.3
2017-03-11T02:06:46.381Z,2.2
2017-03-11T02:07:48.879Z,2.2
2017-03-11T02:08:51.364Z,2.1
2017-03-11T02:09:54.113Z,2.1
2017-03-11T02:10:56.600Z,2.1
2017-03-11T02:11:59.086Z,2.2
2017-03-11T02:13:01.594Z,2.1
2017-03-11T02:14:03.910Z,2.1
2017-03-11T02:15:06.659Z,2.1
2017-03-11T02:16:09.151Z,2.1
2017-03-11T02:17:11.647Z,2.1
2017-03-11T02:18:14.154Z,2.1
2017-03-11T02:19:16.636Z,2.1
2017-03-11T02:20:19.384Z,2.1
2017-03-11T02:21:21.873Z,2.1
2017-03-11T02:22:24.365Z,2.1
2017-03-11T02:23:26.678Z,2.1
2017-03-11T02:24:29.680Z,2.1
2017-03-11T02:25:32.423Z,2.1
2017-03-11T02:26:34.419Z,2.1
2017-03-11T02:27:36.918Z,2.1
2017-03-11T02:28:39.436Z,2.1
2017-03-11T02:29:42.470Z,2.1
2017-03-11T02:30:44.708Z,2.1
2017-03-11T02:34:54.919Z,2.1
2017-03-11T02:35:57.659Z,2.1
2017-03-11T02:37:00.146Z,2.1
2017-03-11T02:38:02.645Z,2.1
2017-03-11T02:40:07.542Z,2.1
2017-03-11T02:41:10.124Z,2.2
2017-03-11T02:42:12.612Z,2.2
2017-03-11T02:43:15.110Z,2.2
2017-03-11T02:44:17.590Z,2.3
2017-03-11T02:46:23.251Z,2.3
2017-03-11T02:47:25.235Z,2.2
2017-03-11T02:48:28.080Z,2.2
2017-03-11T02:49:30.617Z,2.2
2017-03-11T02:50:33.096Z,2.2
2017-03-11T02:51:35.833Z,2.3
2017-03-11T02:52:37.819Z,2.3
2017-03-11T02:53:40.304Z,2.3
2017-03-11T02:54:43.310Z,2.3
2017-03-11T02:55:45.804Z,2.3
2017-03-11T02:56:49.089Z,2.3
2017-03-11T02:57:50.616Z,2.3
2017-03-11T02:58:53.110Z,2.2
2017-03-11T02:59:55.592Z,2.2
2017-03-11T03:00:58.133Z,2.2
2017-03-11T03:02:00.888Z,2.2
2017-03-11T03:03:03.390Z,2.2
2017-03-11T03:04:05.881Z,2.1
2017-03-11T03:05:08.222Z,2.1
2017-03-11T03:06:10.727Z,2.1
2017-03-11T03:07:13.966Z,2.1
2017-03-11T03:08:15.952Z,2.1
2017-03-11T03:09:18.461Z,2.1
2017-03-11T03:10:20.947Z,2.1
2017-03-11T03:11:23.268Z,2.1
2017-03-11T03:12:26.573Z,2.1
2017-03-11T03:13:28.395Z,2.1
2017-03-11T03:14:31.399Z,2.2
2017-03-11T03:16:36.297Z,2.2
2017-03-11T03:17:39.382Z,2.2
2017-03-11T03:18:41.359Z,2.2
2017-03-11T03:19:43.854Z,2.2
2017-03-11T03:20:46.334Z,2.2
2017-03-11T03:21:48.819Z,2.2
2017-03-11T03:22:52.114Z,2.2
2017-03-11T03:23:54.111Z,2.2
2017-03-11T03:24:56.598Z,2.2
2017-03-11T03:25:59.087Z,2.2
2017-03-11T03:27:02.122Z,2.2
2017-03-11T03:28:04.378Z,2.2
2017-03-11T03:29:06.867Z,2.1
2017-03-11T03:30:09.184Z,2.1
2017-03-11T03:31:11.496Z,2.1
2017-03-11T03:32:14.485Z,2.1
2017-03-11T03:33:17.047Z,2.1
2017-03-11T03:34:19.541Z,2.1
2017-03-11T03:35:22.035Z,2.1
2017-03-11T03:36:24.351Z,2.1
2017-03-11T03:37:26.843Z,2.1
2017-03-11T03:38:30.100Z,2.1
2017-03-11T03:39:32.085Z,2.1
2017-03-11T03:40:34.576Z,2.1
2017-03-11T03:42:39.982Z,2.1
2017-03-11T03:43:42.732Z,2.1
2017-03-11T03:44:44.895Z,2.1
2017-03-11T03:45:47.913Z,2.1
2017-03-11T03:46:50.460Z,2.1
2017-03-11T03:48:55.145Z,2.1
2017-03-11T03:49:57.468Z,2.2
2017-03-11T03:50:59.966Z,2.1
2017-03-11T03:52:02.303Z,2.1
2017-03-11T03:53:05.295Z,2.1
2017-03-11T03:54:08.631Z,2.2
2017-03-11T03:56:12.517Z,2.2
2017-03-11T03:57:15.585Z,2.2
2017-03-11T03:58:17.598Z,2.2
2017-03-11T03:59:20.357Z,2.2
2017-03-11T04:00:22.680Z,2.2
2017-03-11T04:01:25.184Z,2.2
2017-03-11T04:02:28.256Z,2.2
2017-03-11T04:03:30.237Z,2.3
2017-03-11T04:04:33.515Z,2.3
2017-03-11T04:05:35.495Z,2.3
2017-03-11T04:06:38.000Z,2.3
2017-03-11T04:07:40.483Z,2.3
2017-03-11T04:09:46.189Z,2.3
2017-03-11T04:10:48.187Z,2.4
2017-03-11T04:11:50.678Z,2.4
2017-03-11T04:12:53.186Z,2.3
2017-03-11T04:13:56.263Z,2.3
2017-03-11T04:14:58.338Z,2.4
2017-03-11T04:16:00.830Z,2.4
2017-03-11T04:17:03.713Z,2.3
2017-03-11T04:18:05.687Z,2.3
2017-03-11T04:19:08.207Z,2.4
2017-03-11T04:20:11.497Z,2.4
2017-03-11T04:21:13.506Z,2.4
2017-03-11T04:22:15.999Z,2.4
2017-03-11T04:23:18.480Z,2.5
2017-03-11T04:24:21.009Z,2.4
2017-03-11T04:25:24.087Z,2.5
2017-03-11T04:26:26.420Z,2.4
2017-03-11T04:27:28.562Z,2.3
2017-03-11T04:28:31.050Z,2.4
2017-03-11T04:29:34.037Z,2.4
2017-03-11T04:30:36.771Z,2.4
2017-03-11T04:31:38.780Z,2.4
2017-03-11T04:32:41.107Z,2.4
2017-03-11T04:34:46.495Z,2.4
2017-03-11T04:35:49.235Z,2.5
2017-03-11T04:36:51.745Z,2.5
2017-03-11T04:37:54.228Z,2.5
2017-03-11T04:38:56.722Z,2.5
2017-03-11T04:39:59.211Z,2.5
2017-03-11T04:41:01.779Z,2.5
2017-03-11T04:42:04.268Z,2.4
2017-03-11T04:43:06.761Z,2.4
2017-03-11T04:44:09.785Z,2.3
2017-03-11T04:45:11.769Z,2.3
2017-03-11T04:46:14.873Z,2.4
2017-03-11T04:47:16.869Z,2.3
2017-03-11T04:48:19.355Z,2.4
2017-03-11T04:49:21.745Z,2.3
2017-03-11T04:50:24.256Z,2.3
2017-03-11T04:51:27.543Z,2.3
2017-03-11T04:52:29.354Z,2.3
2017-03-11T04:53:32.353Z,2.3
2017-03-11T04:54:34.830Z,2.3
2017-03-11T04:55:37.159Z,2.3
2017-03-11T04:56:39.938Z,2.3
2017-03-11T04:57:42.461Z,2.3
2017-03-11T04:58:44.942Z,2.3
2017-03-11T04:59:47.445Z,2.4
2017-03-11T05:00:49.932Z,2.4
2017-03-11T05:01:52.670Z,2.4
2017-03-11T05:02:54.663Z,2.4
2017-03-11T05:03:57.654Z,2.4
2017-03-11T05:05:00.141Z,2.5
2017-03-11T05:06:02.630Z,2.5
2017-03-11T05:07:05.363Z,2.5
2017-03-11T05:08:07.191Z,2.5
2017-03-11T05:09:10.187Z,2.5
2017-03-11T05:10:12.673Z,2.5
2017-03-11T05:11:14.994Z,2.5
2017-03-11T05:12:17.734Z,2.5
2017-03-11T05:13:20.264Z,2.5
2017-03-11T05:14:22.758Z,2.5
2017-03-11T05:15:25.244Z,2.5
2017-03-11T05:16:27.759Z,2.4
2017-03-11T05:17:30.326Z,2.4
2017-03-11T05:18:32.821Z,2.4
2017-03-11T05:19:35.309Z,2.4
2017-03-11T05:20:37.793Z,2.3
2017-03-11T05:21:40.280Z,2.3
2017-03-11T05:22:43.035Z,2.3
2017-03-11T05:23:45.518Z,2.3
2017-03-11T05:24:48.021Z,2.3
2017-03-11T05:25:50.503Z,2.3
2017-03-11T05:26:53.014Z,2.3
2017-03-11T05:27:55.577Z,2.3
2017-03-11T05:30:00.971Z,2.3
2017-03-11T05:31:03.291Z,2.3
2017-03-11T05:32:05.602Z,2.3
2017-03-11T05:33:08.353Z,2.3
2017-03-11T05:34:10.837Z,2.3
2017-03-11T05:35:13.316Z,2.3
2017-03-11T05:36:15.809Z,2.3
2017-03-11T05:37:18.288Z,2.3
2017-03-11T05:38:21.896Z,2.3
2017-03-11T05:39:23.384Z,2.3
2017-03-11T05:40:25.881Z,2.3
2017-03-11T05:41:28.375Z,2.3
2017-03-11T05:42:30.695Z,2.3
2017-03-11T05:43:33.969Z,2.3
2017-03-11T05:44:36.484Z,2.3
2017-03-11T05:45:38.472Z,2.3
2017-03-11T05:48:46.521Z,2.3
2017-03-11T05:49:48.511Z,2.3
2017-03-11T05:51:53.914Z,2.4
2017-03-11T05:52:56.405Z,2.4
2017-03-11T05:53:59.164Z,2.4
2017-03-11T05:55:01.150Z,2.4
2017-03-11T05:57:06.546Z,2.5
2017-03-11T05:59:11.696Z,2.5
2017-03-11T06:01:16.579Z,2.5
2017-03-11T06:02:19.058Z,2.5
2017-03-11T06:03:21.372Z,2.5
2017-03-11T06:04:24.667Z,2.5
2017-03-11T06:05:26.644Z,2.5
2017-03-11T06:09:36.819Z,2.6
2017-03-11T06:14:49.677Z,2.6
2017-03-11T06:15:52.172Z,2.6
2017-03-11T06:16:55.235Z,2.6
2017-03-11T06:17:57.222Z,2.6
2017-03-11T06:18:59.711Z,2.6
2017-03-11T06:20:02.524Z,2.6
2017-03-11T06:21:04.521Z,2.7
2017-03-11T06:22:07.011Z,2.8
2017-03-11T06:23:09.494Z,2.8
2017-03-11T06:24:11.985Z,2.8
2017-03-11T06:25:15.237Z,2.8
2017-03-11T06:26:17.227Z,2.8
2017-03-11T06:27:19.715Z,2.8
2017-03-11T06:28:22.217Z,2.7
2017-03-11T06:29:24.699Z,2.7
2017-03-11T06:30:27.444Z,2.8
2017-03-11T06:31:29.958Z,2.8
2017-03-11T06:32:32.444Z,2.8
2017-03-11T06:33:34.757Z,2.8
2017-03-11T06:34:37.749Z,2.9
2017-03-11T06:35:40.482Z,3
2017-03-11T06:36:43.009Z,3
2017-03-11T06:37:45.042Z,2.9
2017-03-11T06:38:47.523Z,2.9
2017-03-11T06:39:50.019Z,3
2017-03-11T06:42:58.099Z,2.9
2017-03-11T06:45:03.018Z,2.9
2017-03-11T06:46:05.509Z,3
2017-03-11T06:48:10.647Z,3
2017-03-11T06:49:13.146Z,3
2017-03-11T06:50:15.654Z,3.1
2017-03-11T06:51:18.138Z,3.1
2017-03-11T06:52:20.616Z,3.1
2017-03-11T06:53:23.350Z,3.2
2017-03-11T06:54:25.549Z,3.3
2017-03-11T06:55:28.062Z,3.4
2017-03-11T06:56:31.073Z,3.5
2017-03-11T06:57:33.076Z,3.5
2017-03-11T06:58:35.836Z,3.5
2017-03-11T06:59:38.317Z,3.5
2017-03-11T07:00:40.824Z,3.4
2017-03-11T07:01:43.301Z,3.3
2017-03-11T07:02:45.632Z,3.4
2017-03-11T07:03:48.883Z,3.5
2017-03-11T07:04:50.898Z,3.5
2017-03-11T07:05:53.400Z,3.5
2017-03-11T07:06:55.882Z,3.5
2017-03-11T07:07:58.367Z,3.5
2017-03-11T07:09:01.108Z,3.5
2017-03-11T07:10:03.591Z,3.5
2017-03-11T07:11:06.083Z,3.5
2017-03-11T07:12:08.575Z,3.4
2017-03-11T07:13:10.923Z,3.5
2017-03-11T07:14:14.159Z,3.5
2017-03-11T07:15:16.144Z,3.5
2017-03-11T07:16:19.159Z,3.6
2017-03-11T07:17:21.142Z,3.6
2017-03-11T07:21:31.617Z,3.7
2017-03-11T07:23:37.073Z,3.8
2017-03-11T07:24:39.057Z,3.6
2017-03-11T07:25:41.552Z,3.6
2017-03-11T07:26:44.122Z,3.6
2017-03-11T07:27:46.641Z,3.6
2017-03-11T07:28:49.115Z,3.6
2017-03-11T07:29:51.623Z,3.6
2017-03-11T07:30:54.106Z,3.6
2017-03-11T07:31:57.349Z,3.6
2017-03-11T07:32:59.343Z,3.7
2017-03-11T07:34:01.838Z,3.8
2017-03-11T07:35:04.155Z,3.8
2017-03-11T07:36:07.143Z,3.8
2017-03-11T07:37:10.435Z,3.8
2017-03-11T07:37:40.261Z,3.8
2017-03-11T07:39:14.456Z,3.8
2017-03-11T07:42:22.503Z,3.8
2017-03-11T07:43:25.005Z,3.7
2017-03-11T07:44:27.492Z,3.8
2017-03-11T08:05:18.457Z,4.6
2017-03-11T08:06:20.966Z,4.6
2017-03-11T08:07:23.474Z,4.6
2017-03-11T08:09:28.408Z,4.6
2017-03-11T08:10:31.145Z,4.6
2017-03-11T08:11:33.626Z,4.6
2017-03-11T08:12:36.121Z,4.6
2017-03-11T08:13:38.611Z,4.5
2017-03-11T08:14:41.121Z,4.6
2017-03-11T08:15:43.862Z,4.7
2017-03-11T08:17:48.750Z,4.8
2017-03-11T08:18:51.245Z,4.8
2017-03-11T08:19:53.742Z,4.8
2017-03-11T08:20:56.817Z,4.9
2017-03-11T08:21:59.314Z,4.9
2017-03-11T08:23:01.639Z,5
2017-03-11T08:26:09.698Z,5.1
2017-03-11T08:27:11.680Z,5.2
2017-03-11T08:28:14.132Z,5.3
2017-03-11T08:29:17.113Z,5.3
2017-03-11T08:30:19.595Z,5.3
2017-03-11T08:31:22.302Z,5.3
2017-03-11T08:32:24.755Z,5.3
2017-03-11T08:33:27.212Z,5.3
2017-03-11T08:35:32.604Z,5.4
2017-03-11T08:36:35.308Z,5.3
2017-03-11T08:37:37.095Z,5.4
2017-03-11T08:38:39.903Z,5.5
2017-03-11T08:39:42.369Z,5.6
2017-03-11T08:41:47.989Z,5.6
2017-03-11T08:42:50.976Z,5.4
2017-03-11T08:43:52.926Z,5.5
2017-03-11T08:44:55.381Z,5.6
2017-03-11T08:45:57.849Z,5.6
2017-03-11T08:48:03.465Z,5.8
2017-03-11T08:49:05.586Z,5.8
2017-03-11T08:50:07.879Z,5.8
2017-03-11T08:51:10.728Z,5.9
2017-03-11T08:52:13.186Z,6
2017-03-11T08:53:15.900Z,6
2017-03-11T08:54:18.354Z,6.1
2017-03-11T08:55:20.659Z,6.1
2017-03-11T08:56:23.442Z,6.3
2017-03-11T08:57:25.899Z,6.5
2017-03-11T08:58:29.110Z,6.5
2017-03-11T08:59:31.392Z,6.6
2017-03-11T09:02:39.164Z,6.6
2017-03-11T09:03:41.888Z,6.7
2017-03-11T09:04:43.831Z,6.8
2017-03-11T09:05:46.794Z,6.9
2017-03-11T09:06:49.800Z,7
2017-03-11T09:07:51.762Z,7
2017-03-11T09:08:54.476Z,7.1
2017-03-11T09:09:57.463Z,6.9
2017-03-11T09:10:59.436Z,6.9
2017-03-11T09:12:01.946Z,7
2017-03-11T09:13:04.903Z,7
2017-03-11T09:14:07.622Z,7
2017-03-11T09:15:10.104Z,7.1
2017-03-11T09:16:12.556Z,7.2
2017-03-11T09:17:14.849Z,7.3
2017-03-11T09:18:17.301Z,7.4
2017-03-11T09:19:20.523Z,7.4
2017-03-11T09:21:25.393Z,7.4
2017-03-11T09:24:33.422Z,7.3
2017-03-11T09:28:43.598Z,7.5
2017-03-11T09:32:54.049Z,7.8
2017-03-11T09:37:04.073Z,8.1
2017-03-11T09:40:12.096Z,8.1
2017-03-11T09:41:14.560Z,8.1
2017-03-11T09:42:17.022Z,8.1
2017-03-11T09:43:20.024Z,8.2
2017-03-11T09:45:25.135Z,8.2
2017-03-11T09:46:28.112Z,8.2
2017-03-11T09:47:30.083Z,8.3
2017-03-11T09:48:32.370Z,8.3
2017-03-11T09:49:35.334Z,8.4
2017-03-11T09:50:38.604Z,8.4
2017-03-11T09:52:42.801Z,8.5
2017-03-11T09:53:45.783Z,8.5
2017-03-11T09:54:48.240Z,8.5
2017-03-11T09:55:50.948Z,8.6
2017-03-11T10:08:22.181Z,8.6
2017-03-11T10:14:37.934Z,8.8
2017-03-11T10:17:45.236Z,8.9
2017-03-11T10:18:48.194Z,9
2017-03-11T10:19:50.962Z,9.1
2017-03-11T10:28:12.052Z,9
2017-03-11T10:30:16.918Z,8.9
2017-03-11T10:31:19.377Z,8.9
2017-03-11T10:32:21.853Z,9
2017-03-11T10:33:24.553Z,9
2017-03-11T10:34:27.006Z,9
2017-03-11T10:34:57.273Z,9
2017-03-11T10:37:34.688Z,9.2
2017-03-11T10:38:38.479Z,9.2
2017-03-11T10:39:40.427Z,9.3
2017-03-11T10:40:42.878Z,9.1
2017-03-11T10:41:45.341Z,9.2
2017-03-11T10:42:47.800Z,9.3
2017-03-11T10:43:51.009Z,9.3
2017-03-11T10:44:53.464Z,9.3
2017-03-11T10:45:55.918Z,9.3
2017-03-11T10:46:58.373Z,9.3
2017-03-11T10:48:01.326Z,9.4
2017-03-11T10:50:06.437Z,9.5
2017-03-11T10:51:08.727Z,9.5
2017-03-11T10:52:11.693Z,9.6
2017-03-11T10:53:14.155Z,9.6
2017-03-11T10:54:16.641Z,9.6
2017-03-11T10:55:19.904Z,9.8
2017-03-11T10:57:24.762Z,9.8
2017-03-11T10:58:27.047Z,9.8
2017-03-11T10:59:30.006Z,9.9
2017-03-11T11:00:32.609Z,9.8
2017-03-11T11:01:35.069Z,9.9
2017-03-11T11:02:37.519Z,9.8
2017-03-11T11:03:40.482Z,9.8
2017-03-11T11:04:42.932Z,9.8
2017-03-11T11:05:45.650Z,9.8
2017-03-11T11:06:48.111Z,9.8
2017-03-11T11:07:50.564Z,9.7
2017-03-11T11:08:53.520Z,9.8
2017-03-11T11:09:55.816Z,9.8
2017-03-11T11:10:58.858Z,9.8
2017-03-11T11:12:01.315Z,9.8
2017-03-11T11:13:03.766Z,9.7
2017-03-11T11:14:06.721Z,9.7
2017-03-11T11:16:11.828Z,9.7
2017-03-11T11:17:14.807Z,9.8
2017-03-11T11:18:17.288Z,9.9
2017-03-11T11:19:19.738Z,10
2017-03-11T11:20:22.190Z,10
2017-03-11T11:21:25.451Z,10.1
2017-03-11T11:22:27.412Z,10
2017-03-11T11:23:30.383Z,10
2017-03-11T11:25:35.074Z,10
2017-03-11T11:26:38.336Z,10
2017-03-11T11:27:40.636Z,10.1
2017-03-11T11:28:43.114Z,10.2
2017-03-11T11:29:46.087Z,10.3
2017-03-11T11:30:48.538Z,10.3
2017-03-11T11:31:51.773Z,10.3
2017-03-11T11:32:53.722Z,10.3
2017-03-11T11:33:56.703Z,10.2
2017-03-11T11:34:59.676Z,10.2
2017-03-11T11:36:02.152Z,10.3
2017-03-11T11:37:04.368Z,10.3
2017-03-11T11:38:06.823Z,10.2
2017-03-11T11:39:09.284Z,10.3
2017-03-11T11:40:12.258Z,10.4
2017-03-11T11:41:14.392Z,10.5
2017-03-11T11:42:17.615Z,10.5
2017-03-11T11:43:20.088Z,10.6
2017-03-11T11:45:25.454Z,10.6
2017-03-11T11:46:27.907Z,10.5
2017-03-11T11:47:30.634Z,10.3
2017-03-11T11:48:33.111Z,10.3
2017-03-11T11:49:35.567Z,10.3
2017-03-11T11:51:41.488Z,10.3
2017-03-11T11:52:43.724Z,10.3
2017-03-11T11:53:46.713Z,10.4
2017-03-11T11:54:49.195Z,10.4
2017-03-11T11:55:51.649Z,10.3
2017-03-11T11:56:54.113Z,10.4
2017-03-11T11:57:57.324Z,10.4
2017-03-11T12:00:02.200Z,10.5
2017-03-11T12:01:04.690Z,10.5
2017-03-11T12:02:07.158Z,10.5
2017-03-11T12:03:10.199Z,10.1
2017-03-11T12:04:12.480Z,10.1
2017-03-11T12:06:17.844Z,10
2017-03-11T12:08:24.563Z,10.1
2017-03-11T12:09:26.029Z,10.1
2017-03-11T12:10:28.482Z,10.1
2017-03-11T12:12:33.845Z,10
2017-03-11T12:14:39.475Z,10
2017-03-11T12:15:41.447Z,10.1
2017-03-11T12:16:44.401Z,10.1
2017-03-11T12:17:46.863Z,10.1
2017-03-11T12:18:49.338Z,9.9
2017-03-11T12:19:52.542Z,9.6
2017-03-11T12:20:54.837Z,9.6
2017-03-11T12:21:57.301Z,9.5
2017-03-11T12:23:00.264Z,9.5
2017-03-11T12:24:02.734Z,9.6
2017-03-11T12:25:05.455Z,9.5
2017-03-11T12:26:07.931Z,9.5
2017-03-11T12:27:10.386Z,9.6
2017-03-11T12:28:13.380Z,9.6
2017-03-11T12:29:15.835Z,9.6
2017-03-11T12:30:19.073Z,9.7
2017-03-11T12:31:21.037Z,9.8
2017-03-11T12:32:23.359Z,9.9
2017-03-11T12:33:26.213Z,10
2017-03-11T12:34:29.721Z,10
2017-03-11T12:35:31.982Z,10
2017-03-11T12:37:37.392Z,10
2017-03-11T12:38:39.181Z,10
2017-03-11T12:39:42.146Z,10.1
2017-03-11T12:40:44.853Z,10.1
2017-03-11T12:41:47.303Z,10
2017-03-11T12:42:50.260Z,9.9
2017-03-11T12:43:52.736Z,9.8
2017-03-11T12:44:55.191Z,9.8
2017-03-11T12:45:58.400Z,9.8
2017-03-11T12:47:00.893Z,9.7
2017-03-11T12:48:03.352Z,9.6
2017-03-11T12:49:05.798Z,9.6
2017-03-11T12:50:08.754Z,9.7
2017-03-11T12:51:11.476Z,9.7
2017-03-11T12:52:13.964Z,9.6
2017-03-11T12:53:16.426Z,9.6
2017-03-11T12:54:18.877Z,9.6
2017-03-11T12:55:21.840Z,9.8
2017-03-11T12:56:24.593Z,9.8
2017-03-11T12:57:27.590Z,9.5
2017-03-11T12:58:29.554Z,9.5
2017-03-11T12:59:32.510Z,9.6
2017-03-11T13:00:34.983Z,9.8
2017-03-11T13:01:38.031Z,9.8
2017-03-11T13:02:39.823Z,9.8
2017-03-11T13:03:42.776Z,9.9
2017-03-11T13:04:45.248Z,9.6
2017-03-11T13:05:48.242Z,9.7
2017-03-11T13:06:50.807Z,9.6
2017-03-11T13:07:53.274Z,9.5
2017-03-11T13:08:55.742Z,9.4
2017-03-11T13:11:01.104Z,9.6
2017-03-11T13:12:04.841Z,9.6
2017-03-11T13:13:06.302Z,9.6
2017-03-11T13:14:09.271Z,9.8
2017-03-11T13:15:11.722Z,9.9
2017-03-11T13:17:17.333Z,10
2017-03-11T13:18:19.785Z,9.9
2017-03-11T13:19:22.243Z,9.8
2017-03-11T13:20:25.200Z,10
2017-03-11T13:21:27.680Z,10
2017-03-11T13:22:30.402Z,10.1
2017-03-11T13:23:32.853Z,10
2017-03-11T13:24:35.138Z,10
2017-03-11T13:25:38.621Z,10
2017-03-11T13:26:40.581Z,10
2017-03-11T13:28:46.189Z,10.2
2017-03-11T13:30:51.532Z,10.1
2017-03-11T13:31:53.984Z,10.1
2017-03-11T13:32:56.467Z,10
2017-03-11T13:34:00.253Z,9.8
2017-03-11T13:35:01.714Z,9.8
2017-03-11T13:36:04.690Z,9.8
2017-03-11T13:37:07.143Z,9.6
2017-03-11T13:38:09.614Z,9.6
2017-03-11T13:39:12.652Z,9.6
2017-03-11T13:40:15.106Z,9.8
2017-03-11T13:41:17.390Z,9.8
2017-03-11T13:42:20.372Z,9.8
2017-03-11T13:43:22.828Z,9.8
2017-03-11T13:44:26.049Z,9.6
2017-03-11T13:47:33.675Z,9.4
2017-03-11T13:49:39.309Z,9.7
2017-03-11T13:50:41.271Z,9.8
2017-03-11T13:51:44.233Z,9.8
2017-03-11T13:52:46.721Z,9.8
2017-03-11T13:53:49.016Z,9.9
2017-03-11T13:54:52.239Z,9.8
2017-03-11T13:55:54.595Z,9.8
2017-03-11T13:56:56.884Z,9.6
2017-03-11T13:57:59.845Z,9.6
2017-03-11T13:59:02.831Z,9.6
2017-03-11T14:00:05.535Z,9.6
2017-03-11T14:01:07.816Z,9.5
2017-03-11T14:03:13.178Z,9.2
2017-03-11T14:04:15.638Z,9.2
2017-03-11T14:05:19.381Z,9.3
2017-03-11T14:06:20.833Z,9.3
2017-03-11T14:07:23.794Z,9.2
2017-03-11T14:09:28.988Z,9.1
2017-03-11T14:11:34.605Z,9
2017-03-11T14:12:36.575Z,9.1
2017-03-11T14:13:40.062Z,9.1
2017-03-11T14:14:42.009Z,9
2017-03-11T14:15:45.021Z,9
2017-03-11T14:16:47.740Z,9.1
2017-03-11T14:17:50.203Z,9.1
2017-03-11T14:18:52.661Z,9.2
2017-03-11T14:19:54.953Z,9.3
2017-03-11T14:20:57.753Z,9.3
2017-03-11T14:22:00.974Z,9.3
2017-03-11T14:23:02.939Z,9.2
2017-03-11T14:24:05.912Z,9.2
2017-03-11T14:25:08.364Z,9.1
2017-03-11T14:26:11.376Z,9
2017-03-11T14:27:14.101Z,8.9
2017-03-11T14:28:15.891Z,8.8
2017-03-11T14:29:18.848Z,8.8
2017-03-11T14:30:21.157Z,8.8
2017-03-11T14:31:23.976Z,8.7
2017-03-11T14:32:27.182Z,8.6
2017-03-11T14:33:29.637Z,8.6
2017-03-11T14:34:32.115Z,8.6
2017-03-11T14:36:38.008Z,8.6
2017-03-11T14:39:45.281Z,8.6
2017-03-11T14:41:50.656Z,8.6
2017-03-11T14:42:53.110Z,8.7
2017-03-11T14:43:23.876Z,8.7
2017-03-11T14:43:55.475Z,8.6
2017-03-11T14:44:58.528Z,8.6
2017-03-11T14:46:00.979Z,8.5
2017-03-11T14:48:06.352Z,8.3
2017-03-11T14:49:08.838Z,8.3
2017-03-11T14:52:16.861Z,8.2
2017-03-11T14:53:19.859Z,8.1
2017-03-11T14:54:22.314Z,8.1
2017-03-11T14:55:24.764Z,8
2017-03-11T14:56:27.216Z,8
2017-03-11T14:58:32.839Z,7.9
2017-03-11T14:59:35.293Z,7.8
2017-03-11T15:00:37.747Z,7.8
2017-03-11T15:01:40.328Z,7.8
2017-03-11T15:02:43.292Z,7.8
2017-03-11T15:03:46.018Z,7.8
2017-03-11T15:04:48.483Z,7.7
2017-03-11T15:05:50.770Z,7.7
2017-03-11T15:06:53.760Z,7.7
2017-03-11T15:07:56.072Z,7.6
2017-03-11T15:08:59.292Z,7.6
2017-03-11T15:10:01.264Z,7.6
2017-03-11T15:11:03.746Z,7.6
2017-03-11T15:12:06.536Z,7.6
2017-03-11T15:14:12.222Z,7.5
2017-03-11T16:01:09.845Z,7
2017-03-11T16:03:15.075Z,6.9
2017-03-11T16:04:17.548Z,7
2017-03-11T16:05:20.003Z,6.9
2017-03-11T16:06:23.769Z,6.8
2017-03-11T16:07:25.597Z,6.8
2017-03-11T16:08:28.575Z,6.8
2017-03-11T16:09:30.543Z,6.8
2017-03-11T16:10:33.001Z,6.8
2017-03-11T16:11:36.041Z,6.8
2017-03-11T16:12:38.537Z,6.8
2017-03-11T16:13:41.536Z,6.8
2017-03-11T16:14:43.316Z,6.8
2017-03-11T16:15:46.277Z,6.7
2017-03-11T16:16:48.815Z,6.7
2017-03-11T16:17:51.110Z,6.8
2017-03-11T16:18:54.067Z,6.8
2017-03-11T16:19:56.526Z,6.8
2017-03-11T16:20:59.485Z,6.8
2017-03-11T16:22:02.038Z,6.7
2017-03-11T16:23:05.588Z,6.7
2017-03-11T16:24:07.061Z,6.6
2017-03-11T16:25:09.512Z,6.6
2017-03-11T16:26:12.468Z,6.6
2017-03-11T16:27:15.262Z,6.5
2017-03-11T16:32:28.094Z,6.5
2017-03-11T16:33:30.548Z,6.5
2017-03-11T16:34:33.023Z,6.5
2017-03-11T16:36:38.407Z,6.5
2017-03-11T16:38:43.777Z,6.4
2017-03-11T16:40:48.649Z,6.4
2017-03-11T16:41:51.622Z,6.4
2017-03-11T16:43:56.765Z,6.3
2017-03-11T16:48:06.821Z,6.3
2017-03-11T16:49:10.099Z,6.3
2017-03-11T16:50:12.049Z,6.3
2017-03-11T16:51:15.013Z,6.3
2017-03-11T16:52:17.499Z,6.3
2017-03-11T16:54:23.140Z,6.3
2017-03-11T16:58:33.331Z,6.2
2017-03-11T16:59:36.079Z,6.2
2017-03-11T17:00:38.563Z,6.1
2017-03-11T17:01:41.033Z,6.1
2017-03-11T17:02:43.491Z,6.1
2017-03-11T17:03:45.947Z,6.1
2017-03-11T17:04:49.161Z,6.1
2017-03-11T17:05:51.148Z,6
2017-03-11T17:07:57.069Z,6
2017-03-11T17:08:59.036Z,6
2017-03-11T17:18:22.761Z,6
2017-03-11T17:19:25.243Z,6
2017-03-11T17:20:27.709Z,5.9
2017-03-11T17:21:30.165Z,5.9
2017-03-11T17:22:33.126Z,5.9
2017-03-11T17:23:35.831Z,5.8
2017-03-11T17:24:38.287Z,5.8
2017-03-11T17:26:43.150Z,5.8
2017-03-11T17:27:46.650Z,5.8
2017-03-11T17:28:48.858Z,5.7
2017-03-11T17:29:51.314Z,5.7
2017-03-11T17:32:59.095Z,5.6
2017-03-11T17:34:01.824Z,5.6
2017-03-11T17:35:04.280Z,5.6
2017-03-11T17:36:06.734Z,5.5
2017-03-11T17:37:09.179Z,5.5
2017-03-11T17:38:11.965Z,5.5
2017-03-11T17:40:17.246Z,5.5
2017-03-11T17:45:29.914Z,5.5
2017-03-11T17:48:38.249Z,5.4
2017-03-11T17:49:40.767Z,5.4
2017-03-11T17:50:43.321Z,5.4
2017-03-11T17:52:48.718Z,5.5
2017-03-11T17:54:53.597Z,5.4
2017-03-11T17:55:56.319Z,5.4
2017-03-11T17:58:01.193Z,5.3
2017-03-11T17:59:03.650Z,5.3
2017-03-11T18:01:09.284Z,5.3
2017-03-11T18:02:12.280Z,5.3
2017-03-11T18:03:14.233Z,5.3
2017-03-11T18:05:19.618Z,5.3
2017-03-11T18:12:37.784Z,5.3
2017-03-11T18:13:40.114Z,5.2
2017-03-11T18:14:42.572Z,5.2
2017-03-11T18:16:47.946Z,5.1
2017-03-11T18:18:53.394Z,5.1
2017-03-11T18:19:55.344Z,5.1
2017-03-11T18:20:58.308Z,5.1
2017-03-11T18:22:01.317Z,5.1
2017-03-11T18:23:03.273Z,5.1
2017-03-11T18:24:05.997Z,5.1